Time;durP1;ratioP1;P1;durP2;ratioP2;P2;SDS_P1;SDS_P2;PMS_P1;PMS_P2;Temp;Humidity;BMP_temperature;BMP_pressure;BME280_temperature;BME280_humidity;BME280_pressure;Samples;Min_cycle;Max_cycle;Signal;HPM_P1;HPM_P2
2023/08/18 00:00:29;;;;;;;7.47;4.35;;;;;;;19.37;64.67;96494.72;5092906;28;20513;-68
2023/08/18 00:02:56;;;;;;;5.90;3.85;;;;;;;19.36;65.00;96487.75;5092809;28;20048;-68
2023/08/18 00:05:24;;;;;;;8.80;4.93;;;;;;;19.37;64.95;96486.78;5092950;28;20047;-68
2023/08/18 00:07:52;;;;;;;4.35;3.95;;;;;;;19.37;64.78;96489.44;5092723;28;20493;-68
2023/08/18 00:10:19;;;;;;;7.93;4.30;;;;;;;19.35;64.67;96488.69;5092843;28;20048;-68
2023/08/18 00:12:46;;;;;;;4.82;4.00;;;;;;;19.29;64.70;96487.34;5092827;28;20074;-68
2023/08/18 00:15:13;;;;;;;5.28;4.40;;;;;;;19.32;65.29;96486.25;5092694;28;20052;-68
2023/08/18 00:17:41;;;;;;;4.60;4.20;;;;;;;19.32;64.99;96488.91;5092903;28;20052;-68
2023/08/18 00:20:09;;;;;;;5.57;3.90;;;;;;;19.30;65.28;96481.06;5092832;28;20063;-68
2023/08/18 00:22:37;;;;;;;5.13;4.13;;;;;;;19.24;64.83;96480.69;5092788;28;20127;-68
2023/08/18 00:25:06;;;;;;;6.47;4.13;;;;;;;19.17;65.40;96486.44;5092666;28;20060;-68
2023/08/18 00:27:34;;;;;;;5.63;4.10;;;;;;;19.18;65.43;96480.16;5092501;28;20375;-68
2023/08/18 00:30:01;;;;;;;5.40;4.13;;;;;;;19.18;64.96;96482.81;5093738;28;20048;-68
2023/08/18 00:32:28;;;;;;;5.70;4.78;;;;;;;19.16;65.01;96478.59;5096459;28;20044;-68
2023/08/18 00:34:56;;;;;;;9.15;4.03;;;;;;;19.14;64.88;96470.75;5096302;28;20044;-68
2023/08/18 00:37:23;;;;;;;4.88;4.30;;;;;;;19.12;65.15;96472.69;5096329;28;20048;-68
2023/08/18 00:39:50;;;;;;;4.55;4.10;;;;;;;19.14;65.33;96481.38;5096193;28;20039;-68
2023/08/18 00:42:19;;;;;;;4.93;4.25;;;;;;;19.15;65.49;96474.28;5096195;28;20044;-68
2023/08/18 00:44:46;;;;;;;5.10;3.75;;;;;;;19.07;65.36;96474.78;5096147;28;20044;-68
2023/08/18 00:47:13;;;;;;;5.63;4.13;;;;;;;19.03;65.65;96474.16;5096200;28;20551;-68
2023/08/18 00:49:40;;;;;;;5.35;4.40;;;;;;;19.01;65.74;96475.25;5096222;28;20131;-68
2023/08/18 00:52:07;;;;;;;5.22;4.05;;;;;;;19.03;66.05;96473.34;5096041;28;20076;-68
2023/08/18 00:54:34;;;;;;;5.05;3.72;;;;;;;19.01;66.07;96476.09;5095965;28;20044;-69
2023/08/18 00:57:02;;;;;;;7.15;4.55;;;;;;;18.96;65.72;96472.09;5095927;28;20044;-69
2023/08/18 00:59:31;;;;;;;4.82;4.32;;;;;;;18.96;65.93;96480.88;5095950;28;20047;-69
2023/08/18 01:02:02;;;;;;;4.78;3.88;;;;;;;18.85;65.97;96478.19;5095839;28;20066;-69
2023/08/18 01:04:29;;;;;;;;;;;;;;;18.81;66.60;96473.09;5096365;28;20079;-69
2023/08/18 01:06:57;;;;;;;5.47;4.32;;;;;;;18.85;66.46;96476.38;5095817;28;19927;-69
2023/08/18 01:09:24;;;;;;;5.18;4.53;;;;;;;18.77;66.38;96468.13;5095744;28;20054;-69
2023/08/18 01:12:01;;;;;;;6.30;4.13;;;;;;;18.77;66.89;96471.63;5095657;28;20093;-69
2023/08/18 01:14:38;;;;;;;6.22;4.72;;;;;;;18.77;66.84;96478.72;5095503;28;20131;-69
2023/08/18 01:17:13;;;;;;;6.97;4.15;;;;;;;18.71;66.97;96476.50;5095596;28;20048;-69
2023/08/18 01:19:40;;;;;;;4.63;3.75;;;;;;;18.66;67.27;96480.34;5095478;28;20051;-69
2023/08/18 01:22:11;;;;;;;6.32;4.38;;;;;;;18.60;67.89;96486.09;5095593;28;20043;-69
2023/08/18 01:24:42;;;;;;;7.88;4.43;;;;;;;18.49;68.68;96478.94;5095483;28;20048;-69
2023/08/18 01:27:09;;;;;;;8.77;4.68;;;;;;;18.46;69.46;96478.28;5095192;28;20048;-69
2023/08/18 01:29:36;;;;;;;6.00;4.75;;;;;;;18.47;69.18;96475.53;5095317;28;20048;-69
2023/08/18 01:32:07;;;;;;;5.38;4.88;;;;;;;18.44;68.97;96479.25;5095322;28;20520;-68
2023/08/18 01:34:40;;;;;;;6.13;4.60;;;;;;;18.42;69.03;96481.16;5095182;28;20500;-69
2023/08/18 01:37:07;;;;;;;7.97;4.57;;;;;;;18.45;69.23;96480.06;5095140;28;20481;-69
2023/08/18 01:39:35;;;;;;;5.97;4.40;;;;;;;18.47;69.47;96478.19;5095188;28;20047;-69
2023/08/18 01:42:05;;;;;;;5.55;4.90;;;;;;;18.49;69.11;96473.63;5094927;28;20130;-69
2023/08/18 01:44:31;;;;;;;5.13;4.40;;;;;;;18.49;69.12;96478.94;5095098;28;20044;-69
2023/08/18 01:46:59;;;;;;;7.03;4.90;;;;;;;18.42;68.92;96475.84;5095044;28;20044;-69
2023/08/18 01:49:26;;;;;;;9.98;5.03;;;;;;;18.46;69.79;96478.28;5094834;28;20052;-69
2023/08/18 01:51:53;;;;;;;5.55;4.68;;;;;;;18.47;69.83;96475.53;5095025;28;20048;-69
2023/08/18 01:54:20;;;;;;;8.82;5.03;;;;;;;18.42;70.00;96475.84;5094973;28;20044;-69
2023/08/18 01:56:47;;;;;;;7.53;4.65;;;;;;;18.44;70.38;96481.03;5094832;28;20079;-69
2023/08/18 01:59:16;;;;;;;5.85;5.13;;;;;;;18.44;69.91;96476.59;5094694;28;20143;-69
2023/08/18 02:01:43;;;;;;;6.03;5.03;;;;;;;18.44;69.85;96475.75;5094659;28;20127;-69
2023/08/18 02:04:10;;;;;;;5.95;4.50;;;;;;;18.42;70.17;96475.84;5094583;28;20087;-69
2023/08/18 02:06:37;;;;;;;5.00;4.60;;;;;;;18.44;70.24;96470.44;5094568;28;20062;-69
2023/08/18 02:09:05;;;;;;;6.15;4.70;;;;;;;18.38;70.88;96465.59;5094460;28;20386;-70
2023/08/18 02:11:32;;;;;;;4.90;4.40;;;;;;;18.37;70.63;96463.91;5094473;28;20083;-69
2023/08/18 02:13:59;;;;;;;6.70;5.15;;;;;;;18.33;70.94;96468.56;5094392;28;20101;-70
2023/08/18 02:16:27;;;;;;;6.72;4.72;;;;;;;18.25;70.44;96466.47;5094396;28;20058;-69
2023/08/18 02:18:55;;;;;;;6.97;4.55;;;;;;;18.26;70.58;96456.72;5094337;28;20044;-69
2023/08/18 02:21:22;;;;;;;5.25;4.75;;;;;;;18.26;70.60;96465.50;5094361;28;20138;-69
2023/08/18 02:23:49;;;;;;;6.70;5.18;;;;;;;18.26;71.32;96462.00;5094320;28;20048;-69
2023/08/18 02:26:16;;;;;;;5.63;4.60;;;;;;;18.22;71.00;96466.69;5093960;28;20044;-69
2023/08/18 02:28:43;;;;;;;5.80;5.20;;;;;;;18.18;71.13;96463.41;5094202;28;20468;-69
2023/08/18 02:31:10;;;;;;;8.32;5.15;;;;;;;18.14;71.68;96464.56;5094268;28;20072;-69
2023/08/18 02:33:39;;;;;;;8.73;5.55;;;;;;;18.04;71.80;96460.84;5094008;28;20044;-69
2023/08/18 02:36:07;;;;;;;9.45;5.18;;;;;;;18.02;72.38;96460.09;5094055;28;20048;-69
2023/08/18 02:38:35;;;;;;;8.57;5.43;;;;;;;18.01;72.13;96456.63;5094047;28;20090;-69
2023/08/18 02:41:02;;;;;;;6.25;5.40;;;;;;;18.06;72.05;96462.44;5093940;28;20048;-69
2023/08/18 02:43:29;;;;;;;8.25;5.60;;;;;;;18.08;72.23;96462.31;5093933;28;20051;-69
2023/08/18 02:45:57;;;;;;;7.28;5.93;;;;;;;18.06;72.45;96458.91;5094020;28;20044;-69
2023/08/18 02:48:24;;;;;;;8.93;4.80;;;;;;;18.11;72.36;96453.34;5093952;28;20040;-69
2023/08/18 02:51:02;;;;;;;5.82;5.22;;;;;;;18.10;72.34;96452.50;5093695;28;20040;-69
2023/08/18 02:53:29;;;;;;;8.80;5.25;;;;;;;18.03;73.15;96452.03;5093259;28;20051;-69
2023/08/18 02:55:58;;;;;;;9.75;4.85;;;;;;;18.02;73.32;96453.00;5093742;28;20499;-69
2023/08/18 02:58:26;;;;;;;6.95;4.55;;;;;;;18.03;72.94;96454.69;5093688;28;20087;-69
2023/08/18 03:00:53;;;;;;;5.63;4.85;;;;;;;18.01;72.89;96456.63;5093578;28;20462;-69
2023/08/18 03:03:20;;;;;;;8.80;4.93;;;;;;;18.03;72.52;96457.34;5093606;28;20039;-69
2023/08/18 03:05:47;;;;;;;10.50;5.03;;;;;;;18.06;72.75;96457.13;5093601;28;20097;-69
2023/08/18 03:08:15;;;;;;;9.43;5.18;;;;;;;18.09;72.46;96463.19;5093735;28;20054;-69
2023/08/18 03:10:42;;;;;;;5.35;4.63;;;;;;;18.11;72.71;96463.94;5093581;28;20089;-69
2023/08/18 03:13:09;;;;;;;5.80;4.88;;;;;;;18.12;72.43;96455.06;5093453;28;20097;-69
2023/08/18 03:15:40;;;;;;;8.32;5.53;;;;;;;18.11;72.43;96456.84;5093330;28;20052;-69
2023/08/18 03:18:08;;;;;;;5.97;5.38;;;;;;;18.10;72.61;96465.75;5093410;28;20044;-69
2023/08/18 03:20:34;;;;;;;7.50;4.85;;;;;;;18.09;72.78;96465.81;5093386;28;20048;-69
2023/08/18 03:23:02;;;;;;;6.53;5.40;;;;;;;18.08;73.34;96475.56;5093227;28;20134;-69
2023/08/18 03:25:30;;;;;;;9.38;5.30;;;;;;;18.10;73.02;96468.41;5093290;28;20051;-69
2023/08/18 03:27:57;;;;;;;6.55;5.05;;;;;;;18.00;72.92;96465.50;5093299;28;20051;-69
2023/08/18 03:30:24;;;;;;;8.23;5.93;;;;;;;18.05;73.39;96471.31;5093215;28;20046;-69
2023/08/18 03:32:52;;;;;;;6.88;4.68;;;;;;;18.04;73.40;96474.94;5093177;28;20482;-69
2023/08/18 03:35:19;;;;;;;5.50;5.00;;;;;;;18.04;73.34;96474.06;5093093;28;20055;-69
2023/08/18 03:37:47;;;;;;;8.75;5.43;;;;;;;18.07;73.53;96471.22;5093159;28;20052;-69
2023/08/18 03:40:14;;;;;;;6.22;4.90;;;;;;;18.06;73.47;96485.38;5092982;28;20051;-69
2023/08/18 03:42:42;;;;;;;6.35;5.15;;;;;;;18.08;73.64;96485.28;5093147;28;20044;-69
2023/08/18 03:45:10;;;;;;;8.85;5.57;;;;;;;18.06;73.47;96474.78;5093042;28;20039;-69
2023/08/18 03:47:37;;;;;;;7.97;4.60;;;;;;;18.11;73.01;96477.16;5092991;28;20047;-69
2023/08/18 03:50:04;;;;;;;6.05;5.32;;;;;;;18.17;72.87;96477.59;5093090;28;20398;-69
2023/08/18 03:52:32;;;;;;;7.22;5.45;;;;;;;18.22;72.56;96474.63;5092942;28;20516;-69
2023/08/18 03:54:59;;;;;;;5.47;4.95;;;;;;;18.22;72.78;96479.91;5092962;28;20136;-69
2023/08/18 03:57:26;;;;;;;12.38;5.10;;;;;;;18.26;73.01;96477.88;5092973;28;20079;-69
2023/08/18 03:59:55;;;;;;;9.35;5.32;;;;;;;18.29;73.02;96475.88;5092977;28;20044;-69
2023/08/18 04:02:22;;;;;;;5.28;4.78;;;;;;;18.36;72.83;96484.22;5092919;28;20445;-69
2023/08/18 04:04:49;;;;;;;5.32;4.78;;;;;;;18.48;72.74;96482.50;5095439;28;20093;-69
2023/08/18 04:07:17;;;;;;;7.97;5.13;;;;;;;18.59;72.29;96487.06;5096925;28;20130;-69
2023/08/18 04:09:44;;;;;;;7.32;5.45;;;;;;;18.74;72.09;96481.59;5096879;28;20059;-69
2023/08/18 04:12:11;;;;;;;5.63;5.00;;;;;;;18.92;71.56;96474.97;5096780;28;20059;-69
2023/08/18 04:14:38;;;;;;;8.23;5.28;;;;;;;19.10;70.77;96479.91;5096653;28;20048;-69
2023/08/18 04:17:06;;;;;;;8.85;4.93;;;;;;;19.31;70.33;96481.91;5096879;28;20075;-69
2023/08/18 04:19:34;;;;;;;6.75;4.65;;;;;;;19.59;69.54;96477.19;5096837;28;20048;-70
2023/08/18 04:22:01;;;;;;;9.35;5.07;;;;;;;19.90;67.78;96479.31;5096635;28;20460;-69
2023/08/18 04:24:28;;;;;;;4.88;4.38;;;;;;;20.17;67.22;96483.47;5096567;28;20146;-69
2023/08/18 04:26:59;;;;;;;5.03;3.85;;;;;;;20.51;66.38;96485.28;5096317;28;20047;-69
2023/08/18 04:29:26;;;;;;;5.78;4.38;;;;;;;20.90;65.68;96488.41;5096515;28;20076;-69
2023/08/18 04:31:53;;;;;;;4.45;3.92;;;;;;;21.28;64.58;96486.19;5096576;28;20501;-69
2023/08/18 04:34:22;;;;;;;8.45;4.43;;;;;;;21.59;62.85;96488.97;5096399;28;20040;-69
2023/08/18 04:36:49;;;;;;;4.38;3.78;;;;;;;21.91;61.68;96483.75;5096260;28;20519;-69
2023/08/18 04:39:17;;;;;;;9.85;4.03;;;;;;;22.21;60.89;96477.59;5096278;28;20048;-69
2023/08/18 04:41:44;;;;;;;4.63;4.22;;;;;;;22.62;59.88;96483.94;5096231;28;20048;-70
2023/08/18 04:44:11;;;;;;;4.32;3.65;;;;;;;22.96;58.88;96496.94;5096201;28;20135;-69
2023/08/18 04:46:38;;;;;;;7.85;4.45;;;;;;;23.26;58.33;96489.00;5096219;28;20047;-68
2023/08/18 04:49:05;;;;;;;4.22;3.83;;;;;;;23.61;57.60;96492.94;5096311;28;20048;-69
2023/08/18 04:51:34;;;;;;;10.55;3.63;;;;;;;23.97;56.82;96490.50;5096176;28;20040;-69
2023/08/18 04:54:02;;;;;;;5.97;3.90;;;;;;;24.35;55.40;96490.56;5096232;28;20067;-69
2023/08/18 04:56:29;;;;;;;6.68;4.00;;;;;;;24.68;55.04;96484.78;5095876;28;20052;-69
2023/08/18 04:58:56;;;;;;;5.03;3.97;;;;;;;24.99;54.41;96492.50;5096046;28;20054;-69
2023/08/18 05:01:24;;;;;;;5.50;4.00;;;;;;;25.27;53.41;96482.75;5095994;28;20131;-69
2023/08/18 05:03:51;;;;;;;5.07;3.95;;;;;;;25.54;52.28;96483.66;5095859;28;20075;-69
2023/08/18 05:06:19;;;;;;;8.18;3.45;;;;;;;25.83;52.61;96490.63;5096080;28;20091;-69
2023/08/18 05:08:48;;;;;;;10.20;4.10;;;;;;;26.19;51.54;96477.09;5095779;28;20085;-69
2023/08/18 05:11:15;;;;;;;6.55;3.85;;;;;;;26.59;51.71;96490.94;5095735;28;20417;-69
2023/08/18 05:13:43;;;;;;;5.10;3.58;;;;;;;26.97;51.02;96489.72;5095544;28;20063;-69
2023/08/18 05:16:11;;;;;;;3.97;3.50;;;;;;;27.28;50.11;96491.81;5095047;28;20116;-69
2023/08/18 05:18:38;;;;;;;4.28;3.35;;;;;;;27.61;49.43;96497.22;5095665;28;20048;-69
2023/08/18 05:21:05;;;;;;;5.18;4.03;;;;;;;27.90;48.47;96499.59;5095509;28;20088;-69
2023/08/18 05:23:33;;;;;;;6.53;3.65;;;;;;;28.12;47.76;96496.19;5095663;28;20101;-69
2023/08/18 05:26:01;;;;;;;6.20;3.70;;;;;;;28.35;47.59;96495.50;5095196;28;20048;-69
2023/08/18 05:28:29;;;;;;;5.70;3.60;;;;;;;28.51;46.59;96491.09;5095395;28;20047;-69
2023/08/18 05:30:56;;;;;;;7.60;3.85;;;;;;;28.81;46.02;96490.47;5095419;28;20048;-69
2023/08/18 05:33:23;;;;;;;4.75;3.55;;;;;;;29.05;46.09;96494.06;5095374;28;20098;-69
2023/08/18 05:35:51;;;;;;;6.95;3.20;;;;;;;29.32;44.34;96491.91;5095246;28;20055;-69
2023/08/18 05:38:18;;;;;;;8.93;3.38;;;;;;;29.62;44.75;96486.66;5095174;28;20101;-69
2023/08/18 05:40:48;;;;;;;7.55;3.55;;;;;;;29.90;43.55;96494.16;5095294;28;20048;-69
2023/08/18 05:43:18;;;;;;;4.35;3.35;;;;;;;30.18;44.12;96500.81;5095105;28;20059;-69
2023/08/18 05:45:46;;;;;;;6.32;4.18;;;;;;;30.39;44.17;96497.41;5095096;28;20505;-69
2023/08/18 05:48:14;;;;;;;6.75;3.58;;;;;;;30.69;42.45;96493.84;5094978;28;20074;-69
2023/08/18 05:50:42;;;;;;;6.68;3.80;;;;;;;30.92;42.25;96496.47;5095028;28;20047;-69
2023/08/18 05:53:09;;;;;;;4.20;3.28;;;;;;;31.14;42.16;96493.81;5094935;28;20044;-69
2023/08/18 05:55:37;;;;;;;9.65;3.75;;;;;;;31.39;41.75;96496.16;5094822;28;20048;-68
2023/08/18 05:58:05;;;;;;;3.92;3.08;;;;;;;31.58;40.83;96499.28;5094874;28;20047;-69
2023/08/18 06:00:34;;;;;;;3.55;3.13;;;;;;;31.73;39.57;96501.91;5094770;28;20055;-69
2023/08/18 06:03:01;;;;;;;5.72;3.47;;;;;;;32.03;39.62;96499.88;5094690;28;20083;-69
2023/08/18 06:05:28;;;;;;;5.95;3.60;;;;;;;32.32;38.71;96504.47;5094646;28;20083;-69
2023/08/18 06:07:56;;;;;;;4.10;3.30;;;;;;;32.55;39.47;96503.38;5094627;28;20123;-69
2023/08/18 06:10:23;;;;;;;5.68;3.00;;;;;;;32.80;38.43;96505.59;5094723;28;20071;-68
2023/08/18 06:12:50;;;;;;;5.63;3.33;;;;;;;33.03;38.50;96503.41;5094585;28;20520;-68
2023/08/18 06:15:19;;;;;;;6.80;3.65;;;;;;;33.23;37.73;96502.63;5094427;28;20105;-68
2023/08/18 06:17:47;;;;;;;5.38;3.15;;;;;;;33.40;35.29;96494.97;5094547;28;20478;-68
2023/08/18 06:20:15;;;;;;;4.35;3.20;;;;;;;33.44;35.07;96495.41;5094459;28;20052;-68
2023/08/18 06:22:42;;;;;;;8.43;3.60;;;;;;;33.61;35.74;96493.16;5094308;28;20056;-68
2023/08/18 06:25:11;;;;;;;15.80;3.30;;;;;;;33.80;35.51;96490.69;5094250;28;20048;-68
2023/08/18 06:27:38;;;;;;;8.13;3.10;;;;;;;33.93;34.52;96487.13;5093204;28;20056;-69
2023/08/18 07:35:32;;;;;;;4.55;3.05;;;;;;;33.18;30.36;96501.56;5081159;27;1519835;-68
2023/08/18 07:37:59;;;;;;;10.68;3.28;;;;;;;33.06;30.16;96504.03;5111014;28;20127;-68
2023/08/18 07:40:27;;;;;;;9.15;3.08;;;;;;;32.83;31.48;96500.59;5110700;28;20040;-68
2023/08/18 07:42:54;;;;;;;5.22;3.33;;;;;;;32.92;31.52;96498.53;5110539;28;20094;-68
2023/08/18 07:45:22;;;;;;;7.47;3.22;;;;;;;32.77;31.91;96504.94;5110585;28;20059;-68
2023/08/18 07:47:49;;;;;;;6.07;3.03;;;;;;;32.87;32.07;96504.56;5110650;28;20051;-68
2023/08/18 07:50:16;;;;;;;5.47;2.92;;;;;;;32.69;33.05;96507.00;5110518;28;20040;-68
2023/08/18 07:52:44;;;;;;;7.55;3.03;;;;;;;32.39;32.54;96503.44;5110593;28;20132;-67
2023/08/18 07:55:12;;;;;;;5.88;3.35;;;;;;;32.09;32.23;96506.41;5110596;28;20055;-67
2023/08/18 07:57:39;;;;;;;6.25;3.00;;;;;;;31.78;31.78;96504.84;5110509;28;20048;-68
2023/08/18 08:00:13;;;;;;;7.05;2.95;;;;;;;31.47;32.44;96495.22;5110428;28;20048;-68
2023/08/18 08:02:40;;;;;;;4.07;2.70;;;;;;;31.28;32.99;96489.41;5110444;28;20445;-68
2023/08/18 08:05:08;;;;;;;9.93;2.90;;;;;;;30.78;33.50;96506.25;5110162;28;20135;-68
2023/08/18 08:07:35;;;;;;;6.28;3.13;;;;;;;30.45;34.83;96503.91;5110355;28;20048;-68
2023/08/18 08:10:06;;;;;;;6.22;2.80;;;;;;;30.22;35.59;96508.38;5110357;28;20044;-68
2023/08/18 08:12:34;;;;;;;;;;;;;;;29.85;35.93;96512.72;5110536;28;20431;-68
2023/08/18 08:15:03;;;;;;;5.22;2.92;;;;;;;30.14;35.40;96513.81;5110028;28;19928;-68
2023/08/18 08:17:32;;;;;;;10.57;3.28;;;;;;;30.16;35.28;96508.25;5110024;28;20135;-68
2023/08/18 08:20:00;;;;;;;8.30;2.80;;;;;;;30.35;35.68;96512.28;5109968;28;20040;-68
2023/08/18 08:22:27;;;;;;;7.40;3.28;;;;;;;30.51;35.24;96492.38;5109919;28;20052;-68
2023/08/18 08:24:55;;;;;;;5.78;2.92;;;;;;;30.79;35.13;96512.50;5110011;28;20070;-68
2023/08/18 08:27:24;;;;;;;6.97;3.10;;;;;;;30.86;35.24;96519.66;5109986;28;20086;-68
2023/08/18 08:29:51;;;;;;;4.72;3.08;;;;;;;30.77;34.35;96516.25;5109901;28;20413;-68
2023/08/18 08:32:19;;;;;;;6.60;2.88;;;;;;;30.34;35.28;96506.03;5109846;28;20051;-68
2023/08/18 08:34:50;;;;;;;8.57;3.20;;;;;;;30.10;36.29;96497.16;5105471;28;20044;-68
2023/08/18 08:37:17;;;;;;;4.82;3.30;;;;;;;29.95;36.60;96499.81;5096004;28;20091;-68
2023/08/18 08:39:44;;;;;;;8.52;4.03;;;;;;;29.64;37.49;96504.31;5095995;28;20473;-68
2023/08/18 08:42:11;;;;;;;5.13;3.65;;;;;;;29.44;37.93;96503.09;5096124;28;20135;-68
2023/08/18 08:44:42;;;;;;;6.45;3.53;;;;;;;29.32;38.11;96508.91;5095980;28;20139;-68
2023/08/18 08:47:10;;;;;;;9.35;3.40;;;;;;;29.21;38.72;96491.28;5095987;28;20056;-68
2023/08/18 08:49:43;;;;;;;5.18;3.40;;;;;;;29.23;38.84;96493.81;5095971;28;20044;-68
2023/08/18 08:52:13;;;;;;;4.47;3.20;;;;;;;29.47;39.86;96525.09;5095834;28;20044;-68
2023/08/18 08:54:49;;;;;;;6.43;3.40;;;;;;;30.01;38.35;96530.63;5096020;28;20109;-68
2023/08/18 08:57:18;;;;;;;6.82;3.35;;;;;;;30.33;37.62;96525.13;5095599;28;20050;-68
2023/08/18 08:59:47;;;;;;;4.57;3.35;;;;;;;30.11;37.08;96530.38;5095623;28;20051;-68
2023/08/18 09:02:15;;;;;;;4.80;2.90;;;;;;;29.80;38.51;96531.31;5095735;28;20044;-68
2023/08/18 09:04:42;;;;;;;7.32;3.47;;;;;;;29.59;39.32;96530.13;5095320;28;20054;-68
2023/08/18 09:07:12;;;;;;;11.75;3.95;;;;;;;29.34;39.62;96524.84;5095600;28;20047;-68
2023/08/18 09:09:39;;;;;;;8.57;3.75;;;;;;;29.19;41.19;96516.72;5095653;28;20045;-67
2023/08/18 09:12:07;;;;;;;13.07;3.60;;;;;;;29.06;41.55;96517.28;5095351;28;20044;-67
2023/08/18 09:14:35;;;;;;;9.68;3.80;;;;;;;28.94;44.64;96533.84;5095322;28;20055;-68
2023/08/18 09:17:04;;;;;;;6.43;3.65;;;;;;;28.84;48.12;96533.19;5095244;28;20048;-67
2023/08/18 09:19:32;;;;;;;10.98;3.97;;;;;;;28.71;50.44;96531.88;5095193;28;20066;-68
2023/08/18 09:22:00;;;;;;;7.75;4.47;;;;;;;28.72;54.71;96547.00;5095130;28;20052;-68
2023/08/18 09:24:29;;;;;;;8.82;4.70;;;;;;;28.63;55.04;96556.13;5095128;28;20048;-68
2023/08/18 09:27:06;;;;;;;7.32;4.38;;;;;;;28.32;55.79;96559.56;5095027;28;20044;-68
2023/08/18 09:29:34;;;;;;;4.97;4.43;;;;;;;27.91;57.11;96547.78;5095017;28;20048;-67
2023/08/18 09:32:04;;;;;;;12.07;4.65;;;;;;;27.74;59.70;96542.41;5095132;28;20454;-67
2023/08/18 09:34:40;;;;;;;10.75;5.35;;;;;;;27.74;60.78;96544.25;5094639;28;20588;-68
2023/08/18 09:37:07;;;;;;;7.40;4.35;;;;;;;27.62;62.21;96533.81;5094956;28;20079;-67
2023/08/18 09:39:34;;;;;;;8.23;4.53;;;;;;;27.63;62.74;96523.91;5094937;28;20086;-67
2023/08/18 09:42:03;;;;;;;7.93;4.28;;;;;;;27.36;57.52;96520.53;5094773;28;20470;-67
2023/08/18 09:44:30;;;;;;;8.18;4.57;;;;;;;27.08;58.72;96512.72;5094667;28;20056;-67
2023/08/18 09:46:59;;;;;;;6.57;4.97;;;;;;;26.97;60.83;96495.91;5093632;28;20044;-68
2023/08/18 09:49:28;;;;;;;6.13;4.95;;;;;;;26.79;60.66;96484.47;5094649;28;20051;-67
2023/08/18 09:52:03;;;;;;;8.00;4.47;;;;;;;26.65;59.24;96494.81;5094651;28;20515;-68
2023/08/18 09:54:32;;;;;;;9.00;5.10;;;;;;;26.36;61.37;96478.06;5094666;28;20485;-67
2023/08/18 09:57:06;;;;;;;10.00;5.30;;;;;;;26.34;61.37;96473.88;5094573;28;20040;-68
2023/08/18 09:59:43;;;;;;;11.57;4.97;;;;;;;26.39;59.85;96476.09;5094461;28;20126;-67
2023/08/18 10:02:16;;;;;;;12.40;4.75;;;;;;;26.82;63.27;96481.47;5094511;28;20485;-67
2023/08/18 10:04:47;;;;;;;6.40;4.30;;;;;;;27.31;60.74;96478.06;5094369;28;20052;-67
2023/08/18 11:19:48;;;;;;;9.40;3.75;;;;;;;32.47;35.72;96461.06;5070785;28;20403;-68
2023/08/18 11:22:16;;;;;;;8.15;3.22;;;;;;;32.26;34.54;96460.94;5070456;28;20144;-68
2023/08/18 11:24:44;;;;;;;7.18;3.70;;;;;;;32.00;36.08;96467.00;5070190;28;20413;-68
2023/08/18 11:27:12;;;;;;;5.80;3.70;;;;;;;31.78;35.41;96453.50;5070091;28;20190;-68
2023/08/18 11:29:40;;;;;;;4.60;3.42;;;;;;;31.62;35.63;96458.16;5070032;28;20057;-68
2023/08/18 11:32:09;;;;;;;6.60;3.72;;;;;;;31.63;34.59;96450.88;5070128;28;20072;-68
2023/08/18 11:34:36;;;;;;;7.88;4.25;;;;;;;31.83;34.73;96458.31;5069873;28;20386;-68
2023/08/18 11:37:10;;;;;;;8.35;3.30;;;;;;;31.93;34.01;96455.31;5069814;28;20088;-68
2023/08/18 11:39:38;;;;;;;8.02;3.38;;;;;;;32.02;35.41;96446.84;5069827;28;20453;-68
2023/08/18 11:42:06;;;;;;;7.22;3.20;;;;;;;31.94;34.81;96457.81;5069952;28;20110;-68
2023/08/18 11:44:35;;;;;;;4.80;3.15;;;;;;;32.05;33.99;96458.31;5069807;28;20098;-68
2023/08/18 11:47:03;;;;;;;3.40;3.10;;;;;;;32.09;33.54;96451.47;5069826;28;20114;-68
2023/08/18 11:49:30;;;;;;;7.03;4.13;;;;;;;32.21;33.67;96443.63;5069785;28;20044;-68
2023/08/18 11:51:59;;;;;;;8.32;3.15;;;;;;;32.36;32.87;96448.91;5069701;28;20124;-68
2023/08/18 11:54:32;;;;;;;4.55;3.22;;;;;;;32.42;32.67;96452.69;5069508;28;20049;-68
2023/08/18 11:57:00;;;;;;;4.63;3.05;;;;;;;32.19;33.59;96438.41;5069641;28;20045;-69
2023/08/18 11:59:27;;;;;;;8.05;3.33;;;;;;;32.07;33.12;96445.41;5069489;28;20056;-68
2023/08/18 12:01:56;;;;;;;4.72;3.13;;;;;;;31.83;32.48;96439.38;5069349;28;20076;-69
2023/08/18 12:04:27;;;;;;;5.53;3.63;;;;;;;31.72;31.67;96435.38;5069523;28;20110;-68
2023/08/18 12:06:55;;;;;;;7.45;3.80;;;;;;;31.62;32.76;96431.13;5069375;28;20137;-69
2023/08/18 12:09:23;;;;;;;4.95;3.33;;;;;;;31.38;34.29;96441.31;5069389;28;20053;-68
2023/08/18 12:11:52;;;;;;;4.63;3.22;;;;;;;31.31;35.47;96442.25;5069170;28;20083;-68
2023/08/18 12:14:20;;;;;;;5.28;3.20;;;;;;;31.39;34.48;96440.28;5069113;28;20053;-68
2023/08/18 12:16:47;;;;;;;3.72;3.30;;;;;;;31.66;34.39;96431.56;5069084;28;20059;-68
2023/08/18 12:19:14;;;;;;;8.93;3.40;;;;;;;31.93;33.69;96425.56;5063607;28;20049;-69
2023/08/18 12:21:42;;;;;;;8.45;3.53;;;;;;;32.01;32.96;96425.41;5055755;28;20156;-69
2023/08/18 12:24:09;;;;;;;6.47;3.25;;;;;;;32.01;34.32;96430.81;5055866;28;20056;-69
2023/08/18 12:26:37;;;;;;;5.22;3.60;;;;;;;32.27;34.10;96434.72;5055667;28;20048;-69
2023/08/18 12:29:06;;;;;;;8.20;3.55;;;;;;;32.35;33.82;96429.13;5055663;28;20076;-69
2023/08/18 12:31:33;;;;;;;7.90;3.42;;;;;;;32.37;33.09;96426.25;5055848;28;20084;-69
2023/08/18 12:34:05;;;;;;;12.55;4.25;;;;;;;32.08;33.97;96430.88;5055588;28;20049;-69
2023/08/18 12:36:33;;;;;;;4.30;3.63;;;;;;;31.58;34.28;96439.81;5055506;28;20049;-69
2023/08/18 12:39:01;;;;;;;4.63;3.42;;;;;;;31.38;34.51;96435.06;5055591;28;20049;-69
2023/08/18 12:41:28;;;;;;;5.75;3.53;;;;;;;31.30;36.04;96427.09;5055438;28;20251;-68
2023/08/18 12:43:56;;;;;;;11.23;4.80;;;;;;;31.23;36.33;96441.34;5055572;28;20474;-68
2023/08/18 12:46:25;;;;;;;6.60;3.55;;;;;;;31.01;35.77;96448.59;5055441;28;20052;-68
2023/08/18 12:48:53;;;;;;;5.10;3.75;;;;;;;31.00;36.60;96455.03;5055213;28;20052;-68
2023/08/18 12:51:23;;;;;;;6.65;3.60;;;;;;;30.95;36.56;96462.84;5055274;28;20041;-68
2023/08/18 12:53:50;;;;;;;;;;;;;;;30.72;36.73;96459.25;5055638;28;20091;-69
2023/08/18 12:56:18;;;;;;;5.05;3.53;;;;;;;30.68;38.73;96459.81;5055069;28;19928;-69
2023/08/18 12:58:45;;;;;;;6.88;3.85;;;;;;;30.60;38.41;96453.50;5055217;28;20046;-68
2023/08/18 13:01:13;;;;;;;7.25;3.47;;;;;;;30.48;37.04;96449.59;5054915;28;20483;-68
2023/08/18 13:03:43;;;;;;;6.93;3.70;;;;;;;30.39;38.25;96436.22;5055005;28;20060;-68
2023/08/18 13:06:11;;;;;;;9.30;3.90;;;;;;;30.38;39.43;96423.75;5054971;28;20057;-69
2023/08/18 13:08:39;;;;;;;21.42;4.28;;;;;;;30.36;37.89;96431.19;5054984;28;20122;-68
2023/08/18 13:11:06;;;;;;;13.07;3.88;;;;;;;30.49;39.27;96425.13;5054844;28;20131;-68
2023/08/18 13:13:33;;;;;;;5.57;3.63;;;;;;;30.63;38.76;96418.03;5054863;28;20040;-68
2023/08/18 13:16:01;;;;;;;9.23;4.28;;;;;;;30.63;37.53;96418.03;5054841;28;20143;-68
2023/08/18 13:18:28;;;;;;;6.65;3.97;;;;;;;30.50;38.09;96410.63;5054643;28;20045;-68
2023/08/18 13:20:57;;;;;;;12.50;3.92;;;;;;;30.45;38.07;96404.09;5054720;28;20049;-68
2023/08/18 13:23:24;;;;;;;7.80;4.78;;;;;;;30.42;38.09;96407.19;5054706;28;20482;-68
2023/08/18 13:25:52;;;;;;;4.93;4.20;;;;;;;30.42;38.20;96409.88;5054592;28;20052;-68
2023/08/18 13:28:20;;;;;;;5.00;4.00;;;;;;;30.40;38.33;96410.09;5054528;28;20045;-68
2023/08/18 13:30:47;;;;;;;6.70;4.20;;;;;;;30.44;39.05;96419.47;5053623;28;20045;-68
2023/08/18 13:33:14;;;;;;;6.63;4.03;;;;;;;30.54;37.93;96408.38;5054630;28;20072;-68
2023/08/18 13:35:42;;;;;;;8.48;4.13;;;;;;;30.68;38.51;96419.34;5054563;28;20045;-68
2023/08/18 13:38:11;;;;;;;11.40;5.07;;;;;;;30.69;38.35;96413.75;5054473;28;20498;-68
2023/08/18 13:40:38;;;;;;;10.00;4.75;;;;;;;30.66;36.48;96400.63;5054267;28;20402;-68
2023/08/18 13:43:05;;;;;;;8.43;4.25;;;;;;;30.69;35.46;96421.84;5054263;28;20049;-68
2023/08/18 13:45:32;;;;;;;5.78;4.75;;;;;;;30.61;35.32;96417.38;5054343;28;20041;-68
2023/08/18 13:47:59;;;;;;;11.80;4.70;;;;;;;30.60;36.74;96413.03;5054090;28;20531;-68
2023/08/18 13:50:26;;;;;;;9.20;4.38;;;;;;;30.62;37.66;96419.06;5054084;28;20099;-68
2023/08/18 13:52:53;;;;;;;8.70;3.85;;;;;;;30.64;36.98;96418.88;5054103;28;20049;-68
2023/08/18 13:55:22;;;;;;;6.70;3.80;;;;;;;30.58;36.75;96425.84;5053970;28;20578;-68